sensor_id;sensor_type;location;lat;lon;timestamp;P1;durP1;ratioP1;P2;durP2;ratioP2
10260;SDS011;5175;42.606;23.388;2023-11-22T00:01:49;9.43;;;7.97;;
10260;SDS011;5175;42.606;23.388;2023-11-22T00:04:18;9.33;;;7.50;;
10260;SDS011;5175;42.606;23.388;2023-11-22T00:06:45;8.87;;;6.93;;
10260;SDS011;5175;42.606;23.388;2023-11-22T00:09:12;8.47;;;7.23;;
10260;SDS011;5175;42.606;23.388;2023-11-22T00:11:39;9.43;;;7.43;;
10260;SDS011;5175;42.606;23.388;2023-11-22T00:14:06;8.30;;;7.30;;
10260;SDS011;5175;42.606;23.388;2023-11-22T00:16:33;8.23;;;7.00;;
10260;SDS011;5175;42.606;23.388;2023-11-22T00:19:02;7.77;;;6.63;;
10260;SDS011;5175;42.606;23.388;2023-11-22T00:21:31;7.07;;;6.10;;
10260;SDS011;5175;42.606;23.388;2023-11-22T00:23:58;7.90;;;6.77;;
10260;SDS011;5175;42.606;23.388;2023-11-22T00:26:25;6.77;;;5.97;;
10260;SDS011;5175;42.606;23.388;2023-11-22T00:28:51;7.73;;;6.80;;
10260;SDS011;5175;42.606;23.388;2023-11-22T00:31:19;8.17;;;6.37;;
10260;SDS011;5175;42.606;23.388;2023-11-22T00:33:45;9.47;;;6.60;;
10260;SDS011;5175;42.606;23.388;2023-11-22T00:36:12;9.30;;;6.70;;
10260;SDS011;5175;42.606;23.388;2023-11-22T00:38:40;8.73;;;6.93;;
10260;SDS011;5175;42.606;23.388;2023-11-22T00:41:07;10.03;;;7.43;;
10260;SDS011;5175;42.606;23.388;2023-11-22T00:43:34;10.77;;;8.70;;
10260;SDS011;5175;42.606;23.388;2023-11-22T00:46:01;8.93;;;7.00;;
10260;SDS011;5175;42.606;23.388;2023-11-22T00:48:28;10.80;;;9.10;;
10260;SDS011;5175;42.606;23.388;2023-11-22T00:50:54;9.80;;;7.97;;
10260;SDS011;5175;42.606;23.388;2023-11-22T00:53:21;10.03;;;7.67;;
10260;SDS011;5175;42.606;23.388;2023-11-22T00:55:49;12.27;;;7.67;;
10260;SDS011;5175;42.606;23.388;2023-11-22T00:58:16;9.70;;;7.33;;
10260;SDS011;5175;42.606;23.388;2023-11-22T01:00:43;8.87;;;7.27;;
10260;SDS011;5175;42.606;23.388;2023-11-22T01:03:10;9.53;;;7.50;;
10260;SDS011;5175;42.606;23.388;2023-11-22T01:05:36;11.50;;;8.00;;
10260;SDS011;5175;42.606;23.388;2023-11-22T01:08:03;9.57;;;7.43;;
10260;SDS011;5175;42.606;23.388;2023-11-22T01:10:30;8.50;;;7.60;;
10260;SDS011;5175;42.606;23.388;2023-11-22T01:12:58;9.17;;;7.60;;
10260;SDS011;5175;42.606;23.388;2023-11-22T01:15:26;8.47;;;7.07;;
10260;SDS011;5175;42.606;23.388;2023-11-22T01:17:53;9.77;;;7.97;;
10260;SDS011;5175;42.606;23.388;2023-11-22T01:20:19;9.17;;;7.87;;
10260;SDS011;5175;42.606;23.388;2023-11-22T01:22:47;9.37;;;7.57;;
10260;SDS011;5175;42.606;23.388;2023-11-22T01:25:14;9.87;;;7.27;;
10260;SDS011;5175;42.606;23.388;2023-11-22T01:27:41;8.33;;;7.53;;
10260;SDS011;5175;42.606;23.388;2023-11-22T01:30:09;9.97;;;8.07;;
10260;SDS011;5175;42.606;23.388;2023-11-22T01:32:37;8.17;;;7.27;;
10260;SDS011;5175;42.606;23.388;2023-11-22T01:35:04;9.27;;;8.00;;
10260;SDS011;5175;42.606;23.388;2023-11-22T01:37:31;11.43;;;8.00;;
10260;SDS011;5175;42.606;23.388;2023-11-22T01:39:58;12.13;;;8.47;;
10260;SDS011;5175;42.606;23.388;2023-11-22T01:42:25;9.23;;;7.60;;
10260;SDS011;5175;42.606;23.388;2023-11-22T01:44:52;10.57;;;7.60;;
10260;SDS011;5175;42.606;23.388;2023-11-22T01:47:20;8.60;;;7.50;;
10260;SDS011;5175;42.606;23.388;2023-11-22T01:49:48;10.30;;;8.23;;
10260;SDS011;5175;42.606;23.388;2023-11-22T01:52:14;9.60;;;8.40;;
10260;SDS011;5175;42.606;23.388;2023-11-22T01:54:41;12.43;;;9.43;;
10260;SDS011;5175;42.606;23.388;2023-11-22T01:57:09;11.47;;;9.40;;
10260;SDS011;5175;42.606;23.388;2023-11-22T01:59:36;12.20;;;9.07;;
10260;SDS011;5175;42.606;23.388;2023-11-22T02:02:04;11.07;;;8.67;;
10260;SDS011;5175;42.606;23.388;2023-11-22T02:04:33;11.00;;;9.10;;
10260;SDS011;5175;42.606;23.388;2023-11-22T02:06:59;11.10;;;9.50;;
10260;SDS011;5175;42.606;23.388;2023-11-22T02:09:26;11.30;;;9.63;;
10260;SDS011;5175;42.606;23.388;2023-11-22T02:11:53;13.37;;;10.63;;
10260;SDS011;5175;42.606;23.388;2023-11-22T02:14:19;12.97;;;10.60;;
10260;SDS011;5175;42.606;23.388;2023-11-22T02:16:46;11.90;;;10.60;;
10260;SDS011;5175;42.606;23.388;2023-11-22T02:19:14;9.57;;;8.30;;
10260;SDS011;5175;42.606;23.388;2023-11-22T02:21:43;9.90;;;8.17;;
10260;SDS011;5175;42.606;23.388;2023-11-22T02:24:11;10.77;;;8.53;;
10260;SDS011;5175;42.606;23.388;2023-11-22T02:26:40;11.07;;;8.27;;
10260;SDS011;5175;42.606;23.388;2023-11-22T02:29:11;10.40;;;8.67;;
10260;SDS011;5175;42.606;23.388;2023-11-22T02:31:38;10.03;;;7.90;;
10260;SDS011;5175;42.606;23.388;2023-11-22T02:34:05;8.10;;;7.30;;
10260;SDS011;5175;42.606;23.388;2023-11-22T02:36:32;9.50;;;7.80;;
10260;SDS011;5175;42.606;23.388;2023-11-22T02:38:59;8.40;;;7.13;;
10260;SDS011;5175;42.606;23.388;2023-11-22T02:41:27;8.50;;;7.17;;
10260;SDS011;5175;42.606;23.388;2023-11-22T02:43:55;8.33;;;7.43;;
10260;SDS011;5175;42.606;23.388;2023-11-22T02:46:22;10.17;;;7.63;;
10260;SDS011;5175;42.606;23.388;2023-11-22T02:48:48;10.53;;;7.40;;
10260;SDS011;5175;42.606;23.388;2023-11-22T02:51:15;8.80;;;7.40;;
10260;SDS011;5175;42.606;23.388;2023-11-22T02:53:42;9.50;;;7.67;;
10260;SDS011;5175;42.606;23.388;2023-11-22T02:56:10;9.67;;;7.40;;
10260;SDS011;5175;42.606;23.388;2023-11-22T02:58:39;9.10;;;7.93;;
10260;SDS011;5175;42.606;23.388;2023-11-22T03:01:05;9.53;;;7.73;;
10260;SDS011;5175;42.606;23.388;2023-11-22T03:03:32;10.40;;;8.07;;
10260;SDS011;5175;42.606;23.388;2023-11-22T03:05:59;9.80;;;7.87;;
10260;SDS011;5175;42.606;23.388;2023-11-22T03:08:26;9.27;;;7.73;;
10260;SDS011;5175;42.606;23.388;2023-11-22T03:10:53;9.50;;;8.37;;
10260;SDS011;5175;42.606;23.388;2023-11-22T03:13:19;10.13;;;8.70;;
10260;SDS011;5175;42.606;23.388;2023-11-22T03:15:47;10.23;;;7.70;;
10260;SDS011;5175;42.606;23.388;2023-11-22T03:18:14;10.80;;;8.37;;
10260;SDS011;5175;42.606;23.388;2023-11-22T03:20:41;10.07;;;8.33;;
10260;SDS011;5175;42.606;23.388;2023-11-22T03:23:08;10.50;;;7.80;;
10260;SDS011;5175;42.606;23.388;2023-11-22T03:25:36;9.90;;;7.23;;
10260;SDS011;5175;42.606;23.388;2023-11-22T03:28:03;8.10;;;6.93;;
10260;SDS011;5175;42.606;23.388;2023-11-22T03:30:30;8.80;;;6.77;;
10260;SDS011;5175;42.606;23.388;2023-11-22T03:32:58;8.70;;;7.27;;
10260;SDS011;5175;42.606;23.388;2023-11-22T03:35:24;8.87;;;7.10;;
10260;SDS011;5175;42.606;23.388;2023-11-22T03:37:51;7.80;;;6.80;;
10260;SDS011;5175;42.606;23.388;2023-11-22T03:40:18;11.03;;;7.27;;
10260;SDS011;5175;42.606;23.388;2023-11-22T03:42:45;7.87;;;6.83;;
10260;SDS011;5175;42.606;23.388;2023-11-22T03:45:11;9.40;;;7.03;;
10260;SDS011;5175;42.606;23.388;2023-11-22T03:47:39;9.63;;;7.50;;
10260;SDS011;5175;42.606;23.388;2023-11-22T03:50:07;10.03;;;7.53;;
10260;SDS011;5175;42.606;23.388;2023-11-22T03:52:35;8.57;;;7.00;;
10260;SDS011;5175;42.606;23.388;2023-11-22T03:55:02;7.33;;;6.63;;
10260;SDS011;5175;42.606;23.388;2023-11-22T03:57:30;7.90;;;7.07;;
10260;SDS011;5175;42.606;23.388;2023-11-22T03:59:57;8.20;;;6.73;;
10260;SDS011;5175;42.606;23.388;2023-11-22T04:02:24;9.60;;;7.43;;
10260;SDS011;5175;42.606;23.388;2023-11-22T04:04:50;10.73;;;8.47;;
10260;SDS011;5175;42.606;23.388;2023-11-22T04:07:18;8.70;;;7.77;;
10260;SDS011;5175;42.606;23.388;2023-11-22T04:09:45;9.33;;;7.47;;
10260;SDS011;5175;42.606;23.388;2023-11-22T04:12:12;12.73;;;10.10;;
10260;SDS011;5175;42.606;23.388;2023-11-22T04:14:38;8.47;;;7.57;;
10260;SDS011;5175;42.606;23.388;2023-11-22T04:17:05;9.20;;;8.00;;
10260;SDS011;5175;42.606;23.388;2023-11-22T04:19:32;10.50;;;8.00;;
10260;SDS011;5175;42.606;23.388;2023-11-22T04:21:58;9.57;;;8.23;;
10260;SDS011;5175;42.606;23.388;2023-11-22T04:24:26;9.23;;;7.47;;
10260;SDS011;5175;42.606;23.388;2023-11-22T04:26:53;9.77;;;7.97;;
10260;SDS011;5175;42.606;23.388;2023-11-22T04:29:20;9.03;;;7.70;;
10260;SDS011;5175;42.606;23.388;2023-11-22T04:31:46;8.93;;;8.03;;
10260;SDS011;5175;42.606;23.388;2023-11-22T04:34:13;10.90;;;8.50;;
10260;SDS011;5175;42.606;23.388;2023-11-22T04:36:40;10.40;;;8.53;;
10260;SDS011;5175;42.606;23.388;2023-11-22T04:39:06;10.83;;;8.97;;
10260;SDS011;5175;42.606;23.388;2023-11-22T04:41:36;11.83;;;10.10;;
10260;SDS011;5175;42.606;23.388;2023-11-22T04:44:03;12.40;;;9.80;;
10260;SDS011;5175;42.606;23.388;2023-11-22T04:46:30;11.63;;;9.40;;
10260;SDS011;5175;42.606;23.388;2023-11-22T04:48:57;10.50;;;9.13;;
10260;SDS011;5175;42.606;23.388;2023-11-22T04:51:24;10.33;;;9.30;;
10260;SDS011;5175;42.606;23.388;2023-11-22T04:53:51;9.47;;;8.10;;
10260;SDS011;5175;42.606;23.388;2023-11-22T04:56:18;12.63;;;8.23;;
10260;SDS011;5175;42.606;23.388;2023-11-22T04:58:46;10.13;;;9.07;;
10260;SDS011;5175;42.606;23.388;2023-11-22T05:01:13;9.60;;;8.00;;
10260;SDS011;5175;42.606;23.388;2023-11-22T05:03:39;10.77;;;8.80;;
10260;SDS011;5175;42.606;23.388;2023-11-22T05:06:06;10.80;;;8.70;;
10260;SDS011;5175;42.606;23.388;2023-11-22T05:08:33;11.63;;;8.80;;
10260;SDS011;5175;42.606;23.388;2023-11-22T05:11:00;11.40;;;8.83;;
10260;SDS011;5175;42.606;23.388;2023-11-22T05:13:28;11.07;;;8.10;;
10260;SDS011;5175;42.606;23.388;2023-11-22T05:15:56;9.63;;;8.67;;
10260;SDS011;5175;42.606;23.388;2023-11-22T05:18:23;10.33;;;8.33;;
10260;SDS011;5175;42.606;23.388;2023-11-22T05:20:50;9.70;;;8.67;;
10260;SDS011;5175;42.606;23.388;2023-11-22T05:23:17;11.20;;;9.67;;
10260;SDS011;5175;42.606;23.388;2023-11-22T05:25:43;10.77;;;9.67;;
10260;SDS011;5175;42.606;23.388;2023-11-22T05:28:10;10.07;;;9.07;;
10260;SDS011;5175;42.606;23.388;2023-11-22T05:30:38;11.93;;;10.50;;
10260;SDS011;5175;42.606;23.388;2023-11-22T05:33:06;12.43;;;10.93;;
10260;SDS011;5175;42.606;23.388;2023-11-22T05:35:33;14.07;;;10.93;;
10260;SDS011;5175;42.606;23.388;2023-11-22T05:38:00;13.70;;;11.80;;
10260;SDS011;5175;42.606;23.388;2023-11-22T05:40:27;1085.57;;;77.87;;
10260;SDS011;5175;42.606;23.388;2023-11-22T05:42:53;15.33;;;12.00;;
10260;SDS011;5175;42.606;23.388;2023-11-22T05:45:20;14.77;;;11.60;;
10260;SDS011;5175;42.606;23.388;2023-11-22T05:47:47;12.40;;;10.60;;
10260;SDS011;5175;42.606;23.388;2023-11-22T05:50:15;13.07;;;10.77;;
10260;SDS011;5175;42.606;23.388;2023-11-22T05:52:42;17.77;;;11.37;;
10260;SDS011;5175;42.606;23.388;2023-11-22T05:55:09;12.47;;;10.67;;
10260;SDS011;5175;42.606;23.388;2023-11-22T05:57:39;12.93;;;10.77;;
10260;SDS011;5175;42.606;23.388;2023-11-22T06:00:07;12.03;;;10.53;;
10260;SDS011;5175;42.606;23.388;2023-11-22T06:02:34;13.27;;;10.03;;
10260;SDS011;5175;42.606;23.388;2023-11-22T06:05:02;14.40;;;11.13;;
10260;SDS011;5175;42.606;23.388;2023-11-22T06:07:32;13.97;;;11.23;;
10260;SDS011;5175;42.606;23.388;2023-11-22T06:09:58;19.57;;;16.90;;
10260;SDS011;5175;42.606;23.388;2023-11-22T06:12:28;18.47;;;13.23;;
10260;SDS011;5175;42.606;23.388;2023-11-22T06:14:54;16.03;;;13.93;;
10260;SDS011;5175;42.606;23.388;2023-11-22T06:17:22;16.80;;;12.97;;
10260;SDS011;5175;42.606;23.388;2023-11-22T06:19:48;26.03;;;20.03;;
10260;SDS011;5175;42.606;23.388;2023-11-22T06:22:15;26.23;;;18.53;;
10260;SDS011;5175;42.606;23.388;2023-11-22T06:24:44;28.30;;;19.93;;
10260;SDS011;5175;42.606;23.388;2023-11-22T06:27:12;15.83;;;14.13;;
10260;SDS011;5175;42.606;23.388;2023-11-22T06:29:40;18.53;;;14.87;;
10260;SDS011;5175;42.606;23.388;2023-11-22T06:32:08;16.17;;;13.63;;
10260;SDS011;5175;42.606;23.388;2023-11-22T06:34:35;16.47;;;12.80;;
10260;SDS011;5175;42.606;23.388;2023-11-22T06:37:02;16.67;;;14.10;;
10260;SDS011;5175;42.606;23.388;2023-11-22T06:39:29;15.70;;;13.23;;
10260;SDS011;5175;42.606;23.388;2023-11-22T06:41:57;16.80;;;12.97;;
10260;SDS011;5175;42.606;23.388;2023-11-22T06:44:24;18.10;;;12.50;;
10260;SDS011;5175;42.606;23.388;2023-11-22T06:46:51;14.40;;;12.90;;
10260;SDS011;5175;42.606;23.388;2023-11-22T06:49:18;14.80;;;13.00;;
10260;SDS011;5175;42.606;23.388;2023-11-22T06:51:45;17.20;;;12.27;;
10260;SDS011;5175;42.606;23.388;2023-11-22T06:54:12;18.13;;;12.73;;
10260;SDS011;5175;42.606;23.388;2023-11-22T06:56:39;20.33;;;13.17;;
10260;SDS011;5175;42.606;23.388;2023-11-22T06:59:07;20.57;;;13.40;;
10260;SDS011;5175;42.606;23.388;2023-11-22T07:01:34;18.73;;;13.73;;
10260;SDS011;5175;42.606;23.388;2023-11-22T07:04:01;18.87;;;14.40;;
10260;SDS011;5175;42.606;23.388;2023-11-22T07:06:29;21.27;;;13.60;;
10260;SDS011;5175;42.606;23.388;2023-11-22T07:08:56;16.87;;;13.70;;
10260;SDS011;5175;42.606;23.388;2023-11-22T07:11:24;18.07;;;12.97;;
10260;SDS011;5175;42.606;23.388;2023-11-22T07:13:51;17.27;;;12.93;;
10260;SDS011;5175;42.606;23.388;2023-11-22T07:16:19;16.63;;;12.83;;
10260;SDS011;5175;42.606;23.388;2023-11-22T07:18:46;18.57;;;14.47;;
10260;SDS011;5175;42.606;23.388;2023-11-22T07:21:13;23.10;;;17.00;;
10260;SDS011;5175;42.606;23.388;2023-11-22T07:23:39;21.00;;;15.37;;
10260;SDS011;5175;42.606;23.388;2023-11-22T07:26:06;18.77;;;13.83;;
10260;SDS011;5175;42.606;23.388;2023-11-22T07:28:33;17.67;;;14.93;;
10260;SDS011;5175;42.606;23.388;2023-11-22T07:31:01;16.00;;;13.77;;
10260;SDS011;5175;42.606;23.388;2023-11-22T07:33:29;21.43;;;14.70;;
10260;SDS011;5175;42.606;23.388;2023-11-22T07:35:56;14.73;;;12.47;;
10260;SDS011;5175;42.606;23.388;2023-11-22T07:38:23;13.83;;;12.27;;
10260;SDS011;5175;42.606;23.388;2023-11-22T07:40:50;15.63;;;13.47;;
10260;SDS011;5175;42.606;23.388;2023-11-22T07:43:17;17.60;;;14.17;;
10260;SDS011;5175;42.606;23.388;2023-11-22T07:45:44;17.90;;;14.43;;
10260;SDS011;5175;42.606;23.388;2023-11-22T07:48:12;19.37;;;15.00;;
10260;SDS011;5175;42.606;23.388;2023-11-22T07:50:40;18.23;;;13.53;;
10260;SDS011;5175;42.606;23.388;2023-11-22T07:53:08;18.37;;;14.43;;
10260;SDS011;5175;42.606;23.388;2023-11-22T07:55:36;21.33;;;15.10;;
10260;SDS011;5175;42.606;23.388;2023-11-22T07:58:03;19.50;;;15.37;;
10260;SDS011;5175;42.606;23.388;2023-11-22T08:00:31;19.77;;;15.50;;
10260;SDS011;5175;42.606;23.388;2023-11-22T08:02:59;27.67;;;19.50;;
10260;SDS011;5175;42.606;23.388;2023-11-22T08:05:27;25.87;;;21.63;;
10260;SDS011;5175;42.606;23.388;2023-11-22T08:07:56;20.37;;;17.20;;
10260;SDS011;5175;42.606;23.388;2023-11-22T08:10:23;19.37;;;16.60;;
10260;SDS011;5175;42.606;23.388;2023-11-22T08:12:50;20.70;;;18.47;;
10260;SDS011;5175;42.606;23.388;2023-11-22T08:15:17;23.53;;;19.80;;
10260;SDS011;5175;42.606;23.388;2023-11-22T08:17:44;25.47;;;19.10;;
10260;SDS011;5175;42.606;23.388;2023-11-22T08:20:11;20.37;;;17.23;;
10260;SDS011;5175;42.606;23.388;2023-11-22T08:22:42;22.00;;;19.03;;
10260;SDS011;5175;42.606;23.388;2023-11-22T08:25:12;23.03;;;18.57;;
10260;SDS011;5175;42.606;23.388;2023-11-22T08:27:39;20.43;;;18.20;;
10260;SDS011;5175;42.606;23.388;2023-11-22T08:30:06;20.17;;;17.87;;
10260;SDS011;5175;42.606;23.388;2023-11-22T08:32:38;19.97;;;17.13;;
10260;SDS011;5175;42.606;23.388;2023-11-22T08:35:07;20.43;;;17.10;;
10260;SDS011;5175;42.606;23.388;2023-11-22T08:37:34;22.80;;;17.67;;
10260;SDS011;5175;42.606;23.388;2023-11-22T08:40:03;23.30;;;18.07;;
10260;SDS011;5175;42.606;23.388;2023-11-22T08:42:33;19.93;;;16.90;;
10260;SDS011;5175;42.606;23.388;2023-11-22T08:45:00;19.67;;;17.57;;
10260;SDS011;5175;42.606;23.388;2023-11-22T08:47:28;21.80;;;18.53;;
10260;SDS011;5175;42.606;23.388;2023-11-22T08:49:54;19.07;;;16.93;;
10260;SDS011;5175;42.606;23.388;2023-11-22T08:52:21;19.40;;;17.33;;
10260;SDS011;5175;42.606;23.388;2023-11-22T08:54:48;21.93;;;17.77;;
10260;SDS011;5175;42.606;23.388;2023-11-22T08:57:15;22.20;;;18.20;;
10260;SDS011;5175;42.606;23.388;2023-11-22T08:59:43;22.23;;;19.17;;
10260;SDS011;5175;42.606;23.388;2023-11-22T09:02:10;21.50;;;18.17;;
10260;SDS011;5175;42.606;23.388;2023-11-22T09:04:37;19.97;;;17.87;;
10260;SDS011;5175;42.606;23.388;2023-11-22T09:07:06;21.13;;;18.77;;
10260;SDS011;5175;42.606;23.388;2023-11-22T09:09:35;21.93;;;19.40;;
10260;SDS011;5175;42.606;23.388;2023-11-22T09:12:02;20.60;;;18.10;;
10260;SDS011;5175;42.606;23.388;2023-11-22T09:14:29;18.53;;;16.50;;
10260;SDS011;5175;42.606;23.388;2023-11-22T09:16:57;18.10;;;15.80;;
10260;SDS011;5175;42.606;23.388;2023-11-22T09:19:26;18.43;;;15.70;;
10260;SDS011;5175;42.606;23.388;2023-11-22T09:21:53;19.57;;;15.83;;
10260;SDS011;5175;42.606;23.388;2023-11-22T09:24:20;16.40;;;14.67;;
10260;SDS011;5175;42.606;23.388;2023-11-22T09:26:46;16.33;;;14.17;;
10260;SDS011;5175;42.606;23.388;2023-11-22T09:29:13;21.07;;;16.63;;
10260;SDS011;5175;42.606;23.388;2023-11-22T09:31:40;24.43;;;18.57;;
10260;SDS011;5175;42.606;23.388;2023-11-22T09:34:09;19.83;;;17.60;;
10260;SDS011;5175;42.606;23.388;2023-11-22T09:36:36;22.00;;;17.93;;
10260;SDS011;5175;42.606;23.388;2023-11-22T09:39:03;22.30;;;19.43;;
10260;SDS011;5175;42.606;23.388;2023-11-22T09:41:33;22.70;;;19.40;;
10260;SDS011;5175;42.606;23.388;2023-11-22T09:44:00;24.60;;;19.53;;
10260;SDS011;5175;42.606;23.388;2023-11-22T09:46:28;21.13;;;18.93;;
10260;SDS011;5175;42.606;23.388;2023-11-22T09:48:56;23.30;;;19.60;;
10260;SDS011;5175;42.606;23.388;2023-11-22T09:51:26;23.90;;;21.10;;
10260;SDS011;5175;42.606;23.388;2023-11-22T09:53:57;28.43;;;22.50;;
10260;SDS011;5175;42.606;23.388;2023-11-22T09:56:29;27.83;;;24.83;;
10260;SDS011;5175;42.606;23.388;2023-11-22T09:58:58;30.93;;;24.70;;
10260;SDS011;5175;42.606;23.388;2023-11-22T10:01:26;28.40;;;25.30;;
10260;SDS011;5175;42.606;23.388;2023-11-22T10:03:55;29.47;;;23.93;;
10260;SDS011;5175;42.606;23.388;2023-11-22T10:06:25;28.23;;;22.60;;
10260;SDS011;5175;42.606;23.388;2023-11-22T10:08:55;25.40;;;22.73;;
10260;SDS011;5175;42.606;23.388;2023-11-22T10:11:22;25.30;;;21.73;;
10260;SDS011;5175;42.606;23.388;2023-11-22T10:13:49;26.67;;;21.33;;
10260;SDS011;5175;42.606;23.388;2023-11-22T10:16:16;24.63;;;21.70;;
10260;SDS011;5175;42.606;23.388;2023-11-22T10:18:45;25.80;;;23.07;;
10260;SDS011;5175;42.606;23.388;2023-11-22T10:21:19;26.70;;;23.80;;
10260;SDS011;5175;42.606;23.388;2023-11-22T10:23:48;28.97;;;23.30;;
10260;SDS011;5175;42.606;23.388;2023-11-22T10:26:16;26.87;;;23.07;;
10260;SDS011;5175;42.606;23.388;2023-11-22T10:28:43;27.40;;;22.67;;
10260;SDS011;5175;42.606;23.388;2023-11-22T10:31:10;28.83;;;23.47;;
10260;SDS011;5175;42.606;23.388;2023-11-22T10:33:40;30.27;;;23.77;;
10260;SDS011;5175;42.606;23.388;2023-11-22T10:36:08;26.53;;;22.40;;
10260;SDS011;5175;42.606;23.388;2023-11-22T10:38:37;25.67;;;22.30;;
10260;SDS011;5175;42.606;23.388;2023-11-22T10:41:05;27.57;;;21.73;;
10260;SDS011;5175;42.606;23.388;2023-11-22T10:43:34;25.07;;;22.33;;
10260;SDS011;5175;42.606;23.388;2023-11-22T10:46:01;30.67;;;23.37;;
10260;SDS011;5175;42.606;23.388;2023-11-22T10:48:30;29.33;;;22.63;;
10260;SDS011;5175;42.606;23.388;2023-11-22T10:50:58;28.67;;;22.97;;
10260;SDS011;5175;42.606;23.388;2023-11-22T10:53:31;33.77;;;23.10;;
10260;SDS011;5175;42.606;23.388;2023-11-22T10:56:04;28.43;;;23.70;;
10260;SDS011;5175;42.606;23.388;2023-11-22T10:58:36;28.63;;;24.27;;
10260;SDS011;5175;42.606;23.388;2023-11-22T11:01:12;30.70;;;25.07;;
10260;SDS011;5175;42.606;23.388;2023-11-22T11:03:41;29.83;;;25.03;;
10260;SDS011;5175;42.606;23.388;2023-11-22T11:06:15;27.90;;;23.93;;
10260;SDS011;5175;42.606;23.388;2023-11-22T11:08:46;32.57;;;24.20;;
10260;SDS011;5175;42.606;23.388;2023-11-22T11:11:15;31.53;;;23.20;;
10260;SDS011;5175;42.606;23.388;2023-11-22T11:13:43;31.20;;;23.93;;
10260;SDS011;5175;42.606;23.388;2023-11-22T11:16:13;29.23;;;24.37;;
10260;SDS011;5175;42.606;23.388;2023-11-22T11:18:41;28.77;;;24.10;;
10260;SDS011;5175;42.606;23.388;2023-11-22T11:21:08;27.73;;;24.20;;
10260;SDS011;5175;42.606;23.388;2023-11-22T11:23:38;34.87;;;26.53;;
10260;SDS011;5175;42.606;23.388;2023-11-22T11:26:09;26.90;;;21.67;;
10260;SDS011;5175;42.606;23.388;2023-11-22T11:28:43;22.83;;;19.33;;
10260;SDS011;5175;42.606;23.388;2023-11-22T11:31:11;29.43;;;22.40;;
10260;SDS011;5175;42.606;23.388;2023-11-22T11:33:52;35.03;;;25.83;;
10260;SDS011;5175;42.606;23.388;2023-11-22T11:36:21;26.43;;;20.87;;
10260;SDS011;5175;42.606;23.388;2023-11-22T11:38:50;26.23;;;20.27;;
10260;SDS011;5175;42.606;23.388;2023-11-22T11:41:19;20.30;;;17.30;;
10260;SDS011;5175;42.606;23.388;2023-11-22T11:43:51;21.10;;;18.30;;
10260;SDS011;5175;42.606;23.388;2023-11-22T11:46:18;22.03;;;18.77;;
10260;SDS011;5175;42.606;23.388;2023-11-22T11:48:45;26.27;;;18.97;;
10260;SDS011;5175;42.606;23.388;2023-11-22T11:51:15;25.07;;;20.10;;
10260;SDS011;5175;42.606;23.388;2023-11-22T11:53:42;26.43;;;21.93;;
10260;SDS011;5175;42.606;23.388;2023-11-22T11:56:09;31.47;;;23.77;;
10260;SDS011;5175;42.606;23.388;2023-11-22T11:58:38;23.57;;;20.17;;
10260;SDS011;5175;42.606;23.388;2023-11-22T12:01:05;26.93;;;21.33;;
10260;SDS011;5175;42.606;23.388;2023-11-22T12:03:32;23.27;;;20.03;;
10260;SDS011;5175;42.606;23.388;2023-11-22T12:05:59;22.07;;;19.00;;
10260;SDS011;5175;42.606;23.388;2023-11-22T12:08:26;22.67;;;19.60;;
10260;SDS011;5175;42.606;23.388;2023-11-22T12:10:55;23.23;;;20.80;;
10260;SDS011;5175;42.606;23.388;2023-11-22T12:13:24;28.07;;;22.70;;
10260;SDS011;5175;42.606;23.388;2023-11-22T12:15:52;26.00;;;22.67;;
10260;SDS011;5175;42.606;23.388;2023-11-22T12:18:20;27.37;;;23.03;;
10260;SDS011;5175;42.606;23.388;2023-11-22T12:20:53;24.67;;;21.93;;
10260;SDS011;5175;42.606;23.388;2023-11-22T12:23:21;26.00;;;23.10;;
10260;SDS011;5175;42.606;23.388;2023-11-22T12:25:48;24.87;;;22.27;;
10260;SDS011;5175;42.606;23.388;2023-11-22T12:28:21;25.53;;;21.77;;
10260;SDS011;5175;42.606;23.388;2023-11-22T12:30:49;23.43;;;20.93;;
10260;SDS011;5175;42.606;23.388;2023-11-22T12:33:17;25.97;;;22.77;;
10260;SDS011;5175;42.606;23.388;2023-11-22T12:35:44;24.53;;;21.47;;
10260;SDS011;5175;42.606;23.388;2023-11-22T12:38:11;25.27;;;22.27;;
10260;SDS011;5175;42.606;23.388;2023-11-22T12:40:43;25.70;;;22.90;;
10260;SDS011;5175;42.606;23.388;2023-11-22T12:43:12;27.13;;;22.33;;
10260;SDS011;5175;42.606;23.388;2023-11-22T12:45:39;27.77;;;22.20;;
10260;SDS011;5175;42.606;23.388;2023-11-22T12:48:20;29.17;;;24.13;;
10260;SDS011;5175;42.606;23.388;2023-11-22T12:50:49;29.83;;;25.03;;
10260;SDS011;5175;42.606;23.388;2023-11-22T12:53:17;30.43;;;25.33;;
10260;SDS011;5175;42.606;23.388;2023-11-22T12:55:46;27.33;;;23.43;;
10260;SDS011;5175;42.606;23.388;2023-11-22T12:58:14;25.03;;;21.87;;
10260;SDS011;5175;42.606;23.388;2023-11-22T13:00:41;26.97;;;23.67;;
10260;SDS011;5175;42.606;23.388;2023-11-22T13:03:09;25.77;;;23.00;;
10260;SDS011;5175;42.606;23.388;2023-11-22T13:05:38;24.37;;;21.87;;
10260;SDS011;5175;42.606;23.388;2023-11-22T13:08:05;26.00;;;22.63;;
10260;SDS011;5175;42.606;23.388;2023-11-22T13:10:31;26.40;;;23.53;;
10260;SDS011;5175;42.606;23.388;2023-11-22T13:12:58;26.00;;;23.40;;
10260;SDS011;5175;42.606;23.388;2023-11-22T13:15:26;26.87;;;24.00;;
10260;SDS011;5175;42.606;23.388;2023-11-22T13:17:53;27.87;;;22.30;;
10260;SDS011;5175;42.606;23.388;2023-11-22T13:20:21;29.37;;;24.43;;
10260;SDS011;5175;42.606;23.388;2023-11-22T13:22:50;35.47;;;29.50;;
10260;SDS011;5175;42.606;23.388;2023-11-22T13:25:16;30.17;;;27.10;;
10260;SDS011;5175;42.606;23.388;2023-11-22T13:27:44;27.43;;;24.43;;
10260;SDS011;5175;42.606;23.388;2023-11-22T13:30:11;27.40;;;24.23;;
10260;SDS011;5175;42.606;23.388;2023-11-22T13:32:39;30.00;;;24.30;;
10260;SDS011;5175;42.606;23.388;2023-11-22T13:35:08;27.60;;;23.50;;
10260;SDS011;5175;42.606;23.388;2023-11-22T13:37:40;29.13;;;23.70;;
10260;SDS011;5175;42.606;23.388;2023-11-22T13:40:10;25.13;;;22.43;;
10260;SDS011;5175;42.606;23.388;2023-11-22T13:42:43;26.07;;;22.93;;
10260;SDS011;5175;42.606;23.388;2023-11-22T13:45:11;29.90;;;22.67;;
10260;SDS011;5175;42.606;23.388;2023-11-22T13:47:41;28.03;;;22.13;;
10260;SDS011;5175;42.606;23.388;2023-11-22T13:50:09;26.97;;;23.20;;
10260;SDS011;5175;42.606;23.388;2023-11-22T13:52:38;28.97;;;23.13;;
10260;SDS011;5175;42.606;23.388;2023-11-22T13:55:05;28.33;;;23.73;;
10260;SDS011;5175;42.606;23.388;2023-11-22T13:57:37;27.50;;;24.00;;
10260;SDS011;5175;42.606;23.388;2023-11-22T14:00:04;28.33;;;23.57;;
10260;SDS011;5175;42.606;23.388;2023-11-22T14:02:34;30.93;;;23.50;;
10260;SDS011;5175;42.606;23.388;2023-11-22T14:05:01;32.27;;;23.43;;
10260;SDS011;5175;42.606;23.388;2023-11-22T14:07:32;27.27;;;23.80;;
10260;SDS011;5175;42.606;23.388;2023-11-22T14:09:59;28.80;;;23.73;;
10260;SDS011;5175;42.606;23.388;2023-11-22T14:12:28;29.20;;;24.40;;
10260;SDS011;5175;42.606;23.388;2023-11-22T14:14:56;31.97;;;24.27;;
10260;SDS011;5175;42.606;23.388;2023-11-22T14:17:24;36.53;;;25.30;;
10260;SDS011;5175;42.606;23.388;2023-11-22T14:19:50;27.90;;;24.33;;
10260;SDS011;5175;42.606;23.388;2023-11-22T14:22:17;29.83;;;23.23;;
10260;SDS011;5175;42.606;23.388;2023-11-22T14:24:46;27.40;;;24.00;;
10260;SDS011;5175;42.606;23.388;2023-11-22T14:27:12;27.33;;;23.80;;
10260;SDS011;5175;42.606;23.388;2023-11-22T14:29:39;25.63;;;22.93;;
10260;SDS011;5175;42.606;23.388;2023-11-22T14:32:08;28.43;;;22.43;;